createdAt,value
2022-10-16T00:02:10.275Z,20.44
2022-10-16T00:04:36.610Z,20.34
2022-10-16T00:07:03.070Z,20.27
2022-10-16T00:09:29.408Z,20.21
2022-10-16T00:11:57.035Z,20.19
2022-10-16T00:14:23.408Z,20.25
2022-10-16T00:16:49.715Z,20.31
2022-10-16T00:19:16.120Z,20.32
2022-10-16T00:21:42.470Z,20.36
2022-10-16T00:24:09.911Z,20.37
2022-10-16T00:26:36.783Z,20.38
2022-10-16T00:29:05.068Z,20.40
2022-10-16T00:31:31.516Z,20.41
2022-10-16T00:33:58.045Z,20.42
2022-10-16T00:36:25.553Z,20.42
2022-10-16T00:38:52.837Z,20.43
2022-10-16T00:41:19.513Z,20.44
2022-10-16T00:43:46.491Z,20.45
2022-10-16T00:46:17.335Z,20.45
2022-10-16T00:48:46.274Z,20.41
2022-10-16T00:51:12.756Z,20.31
2022-10-16T00:53:39.131Z,20.24
2022-10-16T00:56:05.684Z,20.19
2022-10-16T01:05:56.225Z,20.29
2022-10-16T01:08:28.186Z,20.32
2022-10-16T01:10:58.151Z,20.35
2022-10-16T01:13:28.408Z,20.35
2022-10-16T01:15:56.887Z,20.37
2022-10-16T01:18:27.292Z,20.38
2022-10-16T01:20:55.988Z,20.39
2022-10-16T01:23:28.218Z,20.41
2022-10-16T01:26:05.162Z,20.43
2022-10-16T01:28:35.393Z,20.44
2022-10-16T01:31:02.594Z,20.44
2022-10-16T01:33:31.102Z,20.39
2022-10-16T01:36:00.051Z,20.28
2022-10-16T01:38:30.645Z,20.21
2022-10-16T01:41:00.321Z,20.15
2022-10-16T01:43:29.289Z,20.15
2022-10-16T01:45:57.658Z,20.23
2022-10-16T01:48:24.279Z,20.26
2022-10-16T01:50:53.235Z,20.30
2022-10-16T01:53:19.814Z,20.33
2022-10-16T01:55:48.571Z,20.33
2022-10-16T01:58:15.518Z,20.34
2022-10-16T02:00:44.123Z,20.37
2022-10-16T02:03:13.489Z,20.37
2022-10-16T02:05:42.004Z,20.39
2022-10-16T02:08:08.466Z,20.40
2022-10-16T02:10:36.318Z,20.40
2022-10-16T02:13:07.000Z,20.40
2022-10-16T02:15:33.346Z,20.41
2022-10-16T02:17:59.662Z,20.42
2022-10-16T02:20:28.862Z,20.42
2022-10-16T02:22:56.770Z,20.41
2022-10-16T02:25:25.667Z,20.33
2022-10-16T02:27:54.774Z,20.25
2022-10-16T02:30:23.988Z,20.19
2022-10-16T02:32:51.136Z,20.14
2022-10-16T02:35:19.170Z,20.22
2022-10-16T02:37:47.253Z,20.27
2022-10-16T02:40:14.064Z,20.30
2022-10-16T02:42:41.087Z,20.31
2022-10-16T02:45:09.026Z,20.34
2022-10-16T02:47:35.392Z,20.37
2022-10-16T02:50:01.945Z,20.39
2022-10-16T02:52:28.935Z,20.37
2022-10-16T02:54:56.857Z,20.39
2022-10-16T02:57:23.369Z,20.42
2022-10-16T02:59:50.023Z,20.43
2022-10-16T03:02:16.356Z,20.43
2022-10-16T03:04:42.676Z,20.44
2022-10-16T03:07:09.025Z,20.42
2022-10-16T03:09:35.344Z,20.34
2022-10-16T03:12:03.050Z,20.26
2022-10-16T03:14:29.365Z,20.20
2022-10-16T03:16:55.795Z,20.14
2022-10-16T03:19:22.183Z,20.16
2022-10-16T03:21:49.459Z,20.22
2022-10-16T03:24:15.789Z,20.25
2022-10-16T03:26:42.149Z,20.30
2022-10-16T03:29:09.860Z,20.31
2022-10-16T03:31:36.353Z,20.33
2022-10-16T03:34:02.755Z,20.36
2022-10-16T03:36:29.082Z,20.37
2022-10-16T03:38:55.394Z,20.38
2022-10-16T03:41:21.734Z,20.41
2022-10-16T03:43:48.055Z,20.42
2022-10-16T03:46:15.706Z,20.41
2022-10-16T03:48:42.119Z,20.43
2022-10-16T03:51:08.473Z,20.44
2022-10-16T03:53:34.810Z,20.44
2022-10-16T03:56:01.142Z,20.45
2022-10-16T03:58:27.518Z,20.42
2022-10-16T04:00:53.957Z,20.33
2022-10-16T04:03:21.699Z,20.25
2022-10-16T04:05:48.037Z,20.20
2022-10-16T04:08:14.374Z,20.18
2022-10-16T04:10:40.704Z,20.24
2022-10-16T04:13:07.196Z,20.29
2022-10-16T04:15:33.835Z,20.34
2022-10-16T04:18:00.176Z,20.35
2022-10-16T04:20:27.789Z,20.36
2022-10-16T04:22:54.171Z,20.36
2022-10-16T04:25:20.488Z,20.40
2022-10-16T04:27:46.816Z,20.41
2022-10-16T04:30:13.217Z,20.42
2022-10-16T04:32:39.664Z,20.41
2022-10-16T04:35:06.575Z,20.44
2022-10-16T04:37:34.239Z,20.46
2022-10-16T04:40:00.575Z,20.46
2022-10-16T04:42:26.931Z,20.38
2022-10-16T04:44:53.396Z,20.29
2022-10-16T04:47:19.702Z,20.23
2022-10-16T04:49:46.003Z,20.19
2022-10-16T04:52:12.357Z,20.21
2022-10-16T04:54:40.138Z,20.26
2022-10-16T04:57:06.499Z,20.31
2022-10-16T04:59:32.838Z,20.34
2022-10-16T05:01:59.162Z,20.37
2022-10-16T05:04:25.486Z,20.38
2022-10-16T05:06:51.862Z,20.40
2022-10-16T05:09:18.223Z,20.41
2022-10-16T05:11:45.869Z,20.40
2022-10-16T05:14:12.382Z,20.42
2022-10-16T05:16:38.860Z,20.44
2022-10-16T05:19:26.134Z,20.44
2022-10-16T05:21:51.704Z,20.46
2022-10-16T05:24:18.114Z,20.47
2022-10-16T05:26:45.717Z,20.46
2022-10-16T05:29:12.055Z,20.37
2022-10-16T05:31:38.384Z,20.27
2022-10-16T05:34:04.759Z,20.23
2022-10-16T05:36:31.144Z,20.19
2022-10-16T05:38:57.615Z,20.23
2022-10-16T05:41:24.099Z,20.26
2022-10-16T05:43:51.719Z,20.32
2022-10-16T05:46:18.187Z,20.34
2022-10-16T05:48:44.621Z,20.36
2022-10-16T05:51:12.265Z,20.36
2022-10-16T05:53:39.463Z,20.38
2022-10-16T05:56:06.722Z,20.39
2022-10-16T05:58:34.322Z,20.41
2022-10-16T06:01:03.157Z,20.42
2022-10-16T06:03:29.616Z,20.43
2022-10-16T06:05:56.036Z,20.43
2022-10-16T06:08:23.228Z,20.44
2022-10-16T06:10:49.733Z,20.38
2022-10-16T06:13:16.093Z,20.28
2022-10-16T06:15:43.474Z,20.21
2022-10-16T06:18:11.220Z,20.16
2022-10-16T06:20:37.990Z,20.19
2022-10-16T06:23:04.409Z,20.25
2022-10-16T06:25:30.802Z,20.29
2022-10-16T06:27:57.229Z,20.32
2022-10-16T06:30:23.615Z,20.34
2022-10-16T06:32:50.011Z,20.34
2022-10-16T06:35:17.676Z,20.37
2022-10-16T06:37:44.038Z,20.38
2022-10-16T06:40:10.431Z,20.38
2022-10-16T06:42:36.829Z,20.40
2022-10-16T06:45:03.289Z,20.41
2022-10-16T06:47:29.618Z,20.43
2022-10-16T06:49:55.943Z,20.44
2022-10-16T06:52:23.832Z,20.44
2022-10-16T06:54:50.707Z,20.45
2022-10-16T06:57:17.058Z,20.43
2022-10-16T06:59:46.844Z,20.31
2022-10-16T07:02:13.428Z,20.22
2022-10-16T07:04:39.761Z,20.18
2022-10-16T07:07:08.586Z,20.22
2022-10-16T07:09:37.144Z,20.26
2022-10-16T07:12:03.627Z,20.31
2022-10-16T07:14:30.145Z,20.35
2022-10-16T07:16:56.466Z,20.37
2022-10-16T07:19:22.871Z,20.38
2022-10-16T07:21:49.210Z,20.39
2022-10-16T07:24:16.504Z,20.41
2022-10-16T07:26:44.996Z,20.43
2022-10-16T07:29:13.157Z,20.45
2022-10-16T07:31:39.597Z,20.45
2022-10-16T07:34:06.521Z,20.46
2022-10-16T07:36:32.922Z,20.46
2022-10-16T07:39:00.373Z,20.39
2022-10-16T07:41:27.471Z,20.29
2022-10-16T07:43:55.502Z,20.24
2022-10-16T07:46:23.232Z,20.19
2022-10-16T07:48:49.597Z,20.15
2022-10-16T07:51:17.317Z,20.21
2022-10-16T07:53:43.753Z,20.27
2022-10-16T07:56:10.494Z,20.31
2022-10-16T07:58:36.951Z,20.33
2022-10-16T08:01:06.026Z,20.35
2022-10-16T08:03:32.639Z,20.36
2022-10-16T08:05:59.085Z,20.37
2022-10-16T08:08:25.659Z,20.39
2022-10-16T08:10:52.037Z,20.41
2022-10-16T08:13:18.363Z,20.43
2022-10-16T08:15:45.213Z,20.44
2022-10-16T08:18:13.541Z,20.44
2022-10-16T08:20:40.414Z,20.45
2022-10-16T08:23:07.101Z,20.47
2022-10-16T08:25:35.150Z,20.41
2022-10-16T08:28:01.510Z,20.30
2022-10-16T08:30:27.864Z,20.23
2022-10-16T08:32:54.249Z,20.18
2022-10-16T08:35:21.964Z,20.21
2022-10-16T08:37:48.261Z,20.26
2022-10-16T08:40:18.213Z,20.30
2022-10-16T08:42:54.104Z,20.34
2022-10-16T08:45:25.092Z,20.37
2022-10-16T08:47:57.342Z,20.38
2022-10-16T08:50:26.332Z,20.41
2022-10-16T08:52:52.741Z,20.42
2022-10-16T08:55:26.689Z,20.44
2022-10-16T08:57:53.055Z,20.45
2022-10-16T09:00:20.023Z,20.47
2022-10-16T09:02:51.558Z,20.48
2022-10-16T09:05:23.974Z,20.49
2022-10-16T09:07:56.632Z,20.49
2022-10-16T09:10:29.329Z,20.48
2022-10-16T09:13:00.213Z,20.38
2022-10-16T09:15:30.146Z,20.31
2022-10-16T09:18:00.837Z,20.25
2022-10-16T09:20:31.268Z,20.20
2022-10-16T09:23:08.934Z,20.21
2022-10-16T09:25:36.140Z,20.27
2022-10-16T09:28:02.544Z,20.33
2022-10-16T09:30:30.086Z,20.38
2022-10-16T09:32:58.276Z,20.40
2022-10-16T09:35:28.333Z,20.41
2022-10-16T09:37:55.742Z,20.43
2022-10-16T09:40:27.468Z,20.44
2022-10-16T09:42:57.541Z,20.47
2022-10-16T09:45:24.606Z,20.49
2022-10-16T09:47:54.074Z,20.52
2022-10-16T09:50:24.635Z,20.52
2022-10-16T09:52:51.266Z,20.52
2022-10-16T09:55:18.490Z,20.42
2022-10-16T09:57:51.009Z,20.31
2022-10-16T10:00:17.773Z,20.25
2022-10-16T10:02:44.470Z,20.21
2022-10-16T10:05:19.393Z,20.23
2022-10-16T10:07:45.955Z,20.30
2022-10-16T10:10:21.356Z,20.35
2022-10-16T10:12:47.774Z,20.39
2022-10-16T10:15:16.262Z,20.41
2022-10-16T10:17:46.661Z,20.42
2022-10-16T10:20:16.759Z,20.46
2022-10-16T10:22:43.755Z,20.48
2022-10-16T10:25:16.436Z,20.49
2022-10-16T10:27:49.288Z,20.48
2022-10-16T10:30:20.665Z,20.53
2022-10-16T10:32:52.122Z,20.52
2022-10-16T10:35:23.042Z,20.54
2022-10-16T10:38:00.050Z,20.54
2022-10-16T10:40:35.242Z,20.45
2022-10-16T10:43:05.321Z,20.37
2022-10-16T10:45:39.227Z,20.31
2022-10-16T10:48:25.109Z,20.25
2022-10-16T10:50:55.242Z,20.21
2022-10-16T10:53:26.030Z,20.27
2022-10-16T10:55:57.605Z,20.34
2022-10-16T10:58:36.526Z,20.38
2022-10-16T11:01:07.738Z,20.41
2022-10-16T11:03:43.938Z,20.44
2022-10-16T11:06:13.531Z,20.45
2022-10-16T11:08:42.138Z,20.47
2022-10-16T11:11:11.772Z,20.48
2022-10-16T11:13:43.425Z,20.49
2022-10-16T11:16:27.316Z,20.51
2022-10-16T11:18:59.490Z,20.54
2022-10-16T11:21:30.363Z,20.55
2022-10-16T11:24:01.241Z,20.46
2022-10-16T11:26:29.953Z,20.37
2022-10-16T11:28:57.436Z,20.28
2022-10-16T11:31:29.234Z,20.23
2022-10-16T11:33:59.779Z,20.23
2022-10-16T11:36:28.755Z,20.29
2022-10-16T11:38:58.838Z,20.34
2022-10-16T11:41:28.830Z,20.39
2022-10-16T11:44:04.212Z,20.42
2022-10-16T11:46:33.493Z,20.45
2022-10-16T11:49:04.445Z,20.45
2022-10-16T11:51:34.467Z,20.47
2022-10-16T11:54:04.685Z,20.51
2022-10-16T11:56:33.095Z,20.51
2022-10-16T11:59:02.298Z,20.53
2022-10-16T12:01:32.899Z,20.55
2022-10-16T12:04:06.231Z,20.54
2022-10-16T12:06:35.655Z,20.58
2022-10-16T12:09:02.319Z,20.48
2022-10-16T12:11:34.434Z,20.37
2022-10-16T12:14:18.807Z,20.30
2022-10-16T12:16:52.140Z,20.24
2022-10-16T12:19:20.629Z,20.27
2022-10-16T12:21:47.144Z,20.33
2022-10-16T12:24:22.565Z,20.39
2022-10-16T12:26:49.968Z,20.42
2022-10-16T12:29:33.838Z,20.44
2022-10-16T12:32:00.455Z,20.46
2022-10-16T12:34:30.579Z,20.46
2022-10-16T12:37:08.309Z,20.49
2022-10-16T12:39:35.560Z,20.52
2022-10-16T12:42:02.845Z,20.53
2022-10-16T12:44:33.485Z,20.53
2022-10-16T12:46:59.860Z,20.53
2022-10-16T12:49:32.830Z,20.54
2022-10-16T12:51:59.204Z,20.43
2022-10-16T12:54:28.430Z,20.36
2022-10-16T12:57:03.532Z,20.29
2022-10-16T12:59:34.396Z,20.25
2022-10-16T13:02:22.744Z,20.23
2022-10-16T13:05:02.335Z,20.30
2022-10-16T13:07:34.837Z,20.35
2022-10-16T13:10:06.943Z,20.39
2022-10-16T13:12:45.110Z,20.42
2022-10-16T13:15:25.010Z,20.44
2022-10-16T13:17:57.052Z,20.45
2022-10-16T13:20:29.649Z,20.49
2022-10-16T13:23:03.494Z,20.48
2022-10-16T13:25:36.018Z,20.49
2022-10-16T13:28:03.124Z,20.53
2022-10-16T13:30:30.992Z,20.53
2022-10-16T13:32:59.685Z,20.55
2022-10-16T13:35:28.590Z,20.55
2022-10-16T13:38:04.108Z,20.56
2022-10-16T13:40:30.418Z,20.51
2022-10-16T13:42:56.901Z,20.39
2022-10-16T13:45:24.162Z,20.31
2022-10-16T13:47:50.732Z,20.26
2022-10-16T13:50:18.625Z,20.30
2022-10-16T13:52:46.513Z,20.35
2022-10-16T13:55:13.358Z,20.40
2022-10-16T13:57:40.263Z,20.43
2022-10-16T14:00:18.372Z,20.45
2022-10-16T14:02:45.060Z,20.46
2022-10-16T14:05:11.618Z,20.51
2022-10-16T14:07:38.932Z,20.50
2022-10-16T14:10:07.915Z,20.52
2022-10-16T14:12:35.317Z,20.54
2022-10-16T14:15:02.356Z,20.57
2022-10-16T14:17:29.819Z,20.56
2022-10-16T14:19:59.759Z,20.54
2022-10-16T14:22:31.264Z,20.44
2022-10-16T14:24:57.712Z,20.37
2022-10-16T14:27:29.307Z,20.33
2022-10-16T14:30:09.459Z,20.24
2022-10-16T14:32:35.889Z,20.27
2022-10-16T14:35:02.238Z,20.33
2022-10-16T14:37:29.827Z,20.38
2022-10-16T14:39:56.921Z,20.41
2022-10-16T14:42:24.924Z,20.44
2022-10-16T14:44:53.319Z,20.47
2022-10-16T14:47:20.816Z,20.48
2022-10-16T14:49:47.119Z,20.49
2022-10-16T14:52:13.522Z,20.53
2022-10-16T14:54:39.858Z,20.54
2022-10-16T14:57:06.310Z,20.54
2022-10-16T14:59:34.352Z,20.57
2022-10-16T15:02:02.616Z,20.57
2022-10-16T15:04:29.035Z,20.56
2022-10-16T15:06:55.326Z,20.44
2022-10-16T15:09:21.625Z,20.33
2022-10-16T15:11:47.941Z,20.28
2022-10-16T15:16:46.277Z,20.24
2022-10-16T15:19:14.054Z,20.31
2022-10-16T15:21:40.428Z,20.37
2022-10-16T15:24:10.636Z,20.40
2022-10-16T15:26:37.044Z,20.43
2022-10-16T15:29:03.379Z,20.45
2022-10-16T15:31:29.717Z,20.48
2022-10-16T15:33:56.078Z,20.51
2022-10-16T15:36:27.923Z,20.51
2022-10-16T15:38:54.402Z,20.54
2022-10-16T15:41:20.831Z,20.55
2022-10-16T15:43:48.770Z,20.56
2022-10-16T15:46:15.124Z,20.57
2022-10-16T15:48:41.451Z,20.58
2022-10-16T15:51:08.715Z,20.52
2022-10-16T15:53:36.350Z,20.42
2022-10-16T15:56:02.978Z,20.36
2022-10-16T15:58:29.341Z,20.32
2022-10-16T16:00:56.067Z,20.29
2022-10-16T16:03:22.422Z,20.25
2022-10-16T16:05:48.765Z,20.29
2022-10-16T16:08:15.217Z,20.36
2022-10-16T16:10:42.847Z,20.39
2022-10-16T16:13:09.154Z,20.43
2022-10-16T16:15:35.577Z,20.47
2022-10-16T16:18:01.913Z,20.48
2022-10-16T16:20:28.249Z,20.51
2022-10-16T16:22:54.658Z,20.52
2022-10-16T16:25:20.980Z,20.53
2022-10-16T16:27:48.587Z,20.54
2022-10-16T16:30:18.418Z,20.55
2022-10-16T16:32:46.250Z,20.56
2022-10-16T16:35:12.581Z,20.48
2022-10-16T16:37:38.978Z,20.38
2022-10-16T16:40:05.888Z,20.33
2022-10-16T16:42:32.187Z,20.28
2022-10-16T16:44:59.856Z,20.23
2022-10-16T16:47:26.610Z,20.20
2022-10-16T16:49:53.188Z,20.22
2022-10-16T16:52:19.569Z,20.30
2022-10-16T16:54:46.016Z,20.35
2022-10-16T16:57:12.466Z,20.38
2022-10-16T16:59:38.825Z,20.42
2022-10-16T17:02:06.507Z,20.43
2022-10-16T17:04:32.880Z,20.47
2022-10-16T17:06:59.247Z,20.46
2022-10-16T17:09:25.623Z,20.49
2022-10-16T17:11:52.044Z,20.50
2022-10-16T17:14:18.876Z,20.53
2022-10-16T17:16:45.497Z,20.53
2022-10-16T17:19:14.048Z,20.53
2022-10-16T17:21:40.622Z,20.54
2022-10-16T17:24:08.384Z,20.54
2022-10-16T17:26:34.931Z,20.45
2022-10-16T17:29:02.206Z,20.37
2022-10-16T17:31:29.922Z,20.31
2022-10-16T17:33:57.883Z,20.27
2022-10-16T17:36:25.696Z,20.26
2022-10-16T17:38:52.018Z,20.33
2022-10-16T17:41:19.450Z,20.38
2022-10-16T17:43:46.532Z,20.42
2022-10-16T17:46:13.631Z,20.43
2022-10-16T17:48:40.693Z,20.45
2022-10-16T17:51:07.225Z,20.47
2022-10-16T17:53:35.350Z,20.47
2022-10-16T17:56:03.930Z,20.51
2022-10-16T17:58:30.334Z,20.53
2022-10-16T18:00:56.644Z,20.54
2022-10-16T18:03:23.047Z,20.55
2022-10-16T18:05:49.376Z,20.46
2022-10-16T18:08:15.719Z,20.36
2022-10-16T18:10:46.711Z,20.31
2022-10-16T18:13:13.088Z,20.24
2022-10-16T18:15:39.530Z,20.20
2022-10-16T18:18:05.888Z,20.25
2022-10-16T18:20:32.504Z,20.32
2022-10-16T18:22:58.895Z,20.35
2022-10-16T18:25:25.278Z,20.40
2022-10-16T18:27:52.960Z,20.41
2022-10-16T18:30:19.377Z,20.42
2022-10-16T18:32:45.732Z,20.45
2022-10-16T18:37:39.346Z,20.49
2022-10-16T18:40:05.871Z,20.48
2022-10-16T18:42:32.220Z,20.51
2022-10-16T18:44:59.830Z,20.53
2022-10-16T18:47:26.641Z,20.54
2022-10-16T18:49:53.135Z,20.57
2022-10-16T18:52:19.456Z,20.48
2022-10-16T18:54:45.774Z,20.39
2022-10-16T18:57:12.075Z,20.34
2022-10-16T18:59:38.426Z,20.26
2022-10-16T19:02:06.474Z,20.23
2022-10-16T19:04:32.853Z,20.27
2022-10-16T19:06:59.171Z,20.35
2022-10-16T19:09:25.482Z,20.39
2022-10-16T19:14:23.150Z,20.47
2022-10-16T19:16:49.465Z,20.46
2022-10-16T19:19:18.101Z,20.48
2022-10-16T19:21:44.609Z,20.52
2022-10-16T19:24:12.592Z,20.52
2022-10-16T19:26:41.242Z,20.54
2022-10-16T19:29:09.353Z,20.54
2022-10-16T19:31:35.654Z,20.48
2022-10-16T19:34:02.828Z,20.39
2022-10-16T19:36:31.301Z,20.34
2022-10-16T19:38:58.413Z,20.27
2022-10-16T19:41:25.205Z,20.23
2022-10-16T19:43:52.048Z,20.26
2022-10-16T19:46:19.186Z,20.33
2022-10-16T19:48:45.713Z,20.38
2022-10-16T19:51:12.754Z,20.41
2022-10-16T19:53:40.572Z,20.43
2022-10-16T19:56:11.827Z,20.45
2022-10-16T19:58:38.164Z,20.47
2022-10-16T20:01:04.567Z,20.47
2022-10-16T20:03:30.978Z,20.49
2022-10-16T20:05:57.411Z,20.52
2022-10-16T20:08:24.003Z,20.54
2022-10-16T20:10:52.507Z,20.54
2022-10-16T20:13:19.321Z,20.48
2022-10-16T20:15:45.757Z,20.38
2022-10-16T20:18:12.232Z,20.30
2022-10-16T20:20:38.627Z,20.25
2022-10-16T20:23:05.179Z,20.25
2022-10-16T20:25:34.211Z,20.32
2022-10-16T20:28:01.898Z,20.36
2022-10-16T20:30:28.267Z,20.40
2022-10-16T20:32:54.587Z,20.44
2022-10-16T20:35:20.933Z,20.46
2022-10-16T20:37:47.377Z,20.47
2022-10-16T20:40:13.769Z,20.48
2022-10-16T20:42:40.110Z,20.51
2022-10-16T20:45:08.469Z,20.52
2022-10-16T20:47:34.873Z,20.54
2022-10-16T20:50:01.215Z,20.55
2022-10-16T20:52:28.134Z,20.51
2022-10-16T20:54:54.581Z,20.41
2022-10-16T20:57:20.878Z,20.31
2022-10-16T20:59:48.527Z,20.25
2022-10-16T21:02:16.186Z,20.23
2022-10-16T21:04:42.585Z,20.28
2022-10-16T21:07:08.948Z,20.36
2022-10-16T21:09:35.418Z,20.39
2022-10-16T21:12:01.750Z,20.42
2022-10-16T21:14:28.090Z,20.45
2022-10-16T21:16:54.411Z,20.47
2022-10-16T21:19:22.031Z,20.46
2022-10-16T21:21:48.425Z,20.48
2022-10-16T21:24:16.638Z,20.51
2022-10-16T21:26:43.859Z,20.53
2022-10-16T21:29:10.814Z,20.54
2022-10-16T21:31:37.405Z,20.53
2022-10-16T21:34:03.985Z,20.44
2022-10-16T21:36:32.910Z,20.36
2022-10-16T21:39:12.543Z,20.31
2022-10-16T21:41:39.270Z,20.25
2022-10-16T21:44:06.498Z,20.21
2022-10-16T21:46:35.612Z,20.25
2022-10-16T21:49:03.086Z,20.32
2022-10-16T21:51:31.582Z,20.37
2022-10-16T21:53:59.453Z,20.39
2022-10-16T21:56:26.203Z,20.41
2022-10-16T21:58:52.950Z,20.44
2022-10-16T22:01:20.488Z,20.47
2022-10-16T22:03:47.424Z,20.48
2022-10-16T22:06:15.055Z,20.49
2022-10-16T22:08:41.923Z,20.50
2022-10-16T22:11:10.643Z,20.53
2022-10-16T22:13:37.256Z,20.54
2022-10-16T22:16:03.841Z,20.54
2022-10-16T22:18:30.920Z,20.45
2022-10-16T22:20:57.334Z,20.35
2022-10-16T22:23:24.031Z,20.28
2022-10-16T22:25:50.383Z,20.25
2022-10-16T22:28:18.049Z,20.20
2022-10-16T22:30:45.263Z,20.25
2022-10-16T22:33:11.815Z,20.34
2022-10-16T22:35:38.359Z,20.37
2022-10-16T22:38:04.978Z,20.40
2022-10-16T22:40:33.248Z,20.42
2022-10-16T22:42:59.604Z,20.44
2022-10-16T22:45:27.252Z,20.46
2022-10-16T22:47:53.605Z,20.46
2022-10-16T22:50:19.976Z,20.49
2022-10-16T22:52:46.279Z,20.51
2022-10-16T22:55:12.729Z,20.53
2022-10-16T22:57:39.140Z,20.54
2022-10-16T23:00:06.575Z,20.43
2022-10-16T23:02:34.215Z,20.35
2022-10-16T23:05:01.888Z,20.31
2022-10-16T23:07:28.331Z,20.26
2022-10-16T23:09:54.712Z,20.22
2022-10-16T23:12:21.054Z,20.22
2022-10-16T23:14:47.382Z,20.29
2022-10-16T23:17:13.751Z,20.32
2022-10-16T23:19:40.101Z,20.37
2022-10-16T23:22:07.723Z,20.41
2022-10-16T23:24:34.246Z,20.43
2022-10-16T23:27:00.610Z,20.46
2022-10-16T23:29:27.058Z,20.46
2022-10-16T23:31:53.621Z,20.47
2022-10-16T23:34:20.163Z,20.48
2022-10-16T23:36:46.724Z,20.49
2022-10-16T23:39:14.894Z,20.51
2022-10-16T23:41:41.339Z,20.53
2022-10-16T23:44:07.698Z,20.53
2022-10-16T23:46:34.386Z,20.43
2022-10-16T23:49:00.718Z,20.33
2022-10-16T23:51:28.038Z,20.24
2022-10-16T23:53:54.385Z,20.23
2022-10-16T23:56:22.008Z,20.24
2022-10-16T23:58:48.531Z,20.31
